sensor_id;sensor_type;location;lat;lon;timestamp;P1;durP1;ratioP1;P2;durP2;ratioP2
34836;SDS011;21053;50.848;4.652;2022-09-09T00:02:18;2.80;;;1.25;;
34836;SDS011;21053;50.848;4.652;2022-09-09T00:07:47;1.50;;;0.88;;
34836;SDS011;21053;50.848;4.652;2022-09-09T00:10:29;2.65;;;1.00;;
34836;SDS011;21053;50.848;4.652;2022-09-09T00:16:17;3.30;;;1.58;;
34836;SDS011;21053;50.848;4.652;2022-09-09T00:22:07;1.70;;;1.10;;
34836;SDS011;21053;50.848;4.652;2022-09-09T00:24:46;3.03;;;1.10;;
34836;SDS011;21053;50.848;4.652;2022-09-09T00:32:49;4.05;;;1.63;;
34836;SDS011;21053;50.848;4.652;2022-09-09T00:35:32;3.83;;;1.10;;
34836;SDS011;21053;50.848;4.652;2022-09-09T00:38:25;6.70;;;0.82;;
34836;SDS011;21053;50.848;4.652;2022-09-09T00:44:00;1.98;;;1.00;;
34836;SDS011;21053;50.848;4.652;2022-09-09T00:49:53;1.35;;;1.08;;
34836;SDS011;21053;50.848;4.652;2022-09-09T00:52:29;4.05;;;1.30;;
34836;SDS011;21053;50.848;4.652;2022-09-09T00:55:17;5.35;;;1.23;;
34836;SDS011;21053;50.848;4.652;2022-09-09T00:58:06;4.25;;;1.13;;
34836;SDS011;21053;50.848;4.652;2022-09-09T01:03:36;4.47;;;1.02;;
34836;SDS011;21053;50.848;4.652;2022-09-09T01:11:32;7.15;;;1.20;;
34836;SDS011;21053;50.848;4.652;2022-09-09T01:14:35;2.85;;;1.17;;
34836;SDS011;21053;50.848;4.652;2022-09-09T01:28:43;6.22;;;1.27;;
34836;SDS011;21053;50.848;4.652;2022-09-09T01:31:17;7.78;;;1.48;;
34836;SDS011;21053;50.848;4.652;2022-09-09T01:33:48;9.55;;;1.73;;
34836;SDS011;21053;50.848;4.652;2022-09-09T01:36:32;2.50;;;1.17;;
34836;SDS011;21053;50.848;4.652;2022-09-09T01:39:04;2.85;;;1.27;;
34836;SDS011;21053;50.848;4.652;2022-09-09T01:41:32;4.80;;;1.15;;
34836;SDS011;21053;50.848;4.652;2022-09-09T01:43:59;7.50;;;1.52;;
34836;SDS011;21053;50.848;4.652;2022-09-09T01:46:28;3.33;;;1.20;;
34836;SDS011;21053;50.848;4.652;2022-09-09T01:48:55;3.90;;;1.33;;
34836;SDS011;21053;50.848;4.652;2022-09-09T01:51:21;5.47;;;1.30;;
34836;SDS011;21053;50.848;4.652;2022-09-09T01:53:50;4.03;;;1.27;;
34836;SDS011;21053;50.848;4.652;2022-09-09T01:56:35;4.80;;;1.15;;
34836;SDS011;21053;50.848;4.652;2022-09-09T02:04:52;2.97;;;1.13;;
34836;SDS011;21053;50.848;4.652;2022-09-09T02:10:24;4.10;;;1.33;;
34836;SDS011;21053;50.848;4.652;2022-09-09T02:13:16;3.75;;;1.20;;
34836;SDS011;21053;50.848;4.652;2022-09-09T02:15:57;3.70;;;1.38;;
34836;SDS011;21053;50.848;4.652;2022-09-09T02:21:26;7.45;;;1.20;;
34836;SDS011;21053;50.848;4.652;2022-09-09T02:26:27;8.10;;;1.52;;
34836;SDS011;21053;50.848;4.652;2022-09-09T02:28:56;7.95;;;1.58;;
34836;SDS011;21053;50.848;4.652;2022-09-09T02:31:26;5.30;;;1.30;;
34836;SDS011;21053;50.848;4.652;2022-09-09T02:33:55;7.35;;;1.42;;
34836;SDS011;21053;50.848;4.652;2022-09-09T02:39:02;3.70;;;1.20;;
34836;SDS011;21053;50.848;4.652;2022-09-09T02:41:36;5.03;;;1.40;;
34836;SDS011;21053;50.848;4.652;2022-09-09T02:44:14;3.85;;;1.33;;
34836;SDS011;21053;50.848;4.652;2022-09-09T02:52:33;10.77;;;1.42;;
34836;SDS011;21053;50.848;4.652;2022-09-09T02:55:07;1.88;;;0.95;;
34836;SDS011;21053;50.848;4.652;2022-09-09T02:57:40;4.75;;;1.30;;
34836;SDS011;21053;50.848;4.652;2022-09-09T03:00:21;3.13;;;1.60;;
34836;SDS011;21053;50.848;4.652;2022-09-09T03:02:53;10.52;;;1.50;;
34836;SDS011;21053;50.848;4.652;2022-09-09T03:05:21;4.57;;;1.15;;
34836;SDS011;21053;50.848;4.652;2022-09-09T03:10:16;8.32;;;1.30;;
34836;SDS011;21053;50.848;4.652;2022-09-09T03:12:45;2.03;;;1.10;;
34836;SDS011;21053;50.848;4.652;2022-09-09T03:15:13;4.10;;;1.30;;
34836;SDS011;21053;50.848;4.652;2022-09-09T03:17:42;5.85;;;1.35;;
34836;SDS011;21053;50.848;4.652;2022-09-09T03:20:10;5.35;;;1.35;;
34836;SDS011;21053;50.848;4.652;2022-09-09T03:22:40;3.10;;;1.17;;
34836;SDS011;21053;50.848;4.652;2022-09-09T03:25:12;3.95;;;1.33;;
34836;SDS011;21053;50.848;4.652;2022-09-09T03:30:06;6.97;;;1.20;;
34836;SDS011;21053;50.848;4.652;2022-09-09T03:32:34;4.68;;;1.13;;
34836;SDS011;21053;50.848;4.652;2022-09-09T03:35:14;3.17;;;1.20;;
34836;SDS011;21053;50.848;4.652;2022-09-09T03:37:42;9.73;;;1.13;;
34836;SDS011;21053;50.848;4.652;2022-09-09T03:40:16;3.65;;;1.15;;
34836;SDS011;21053;50.848;4.652;2022-09-09T03:42:45;6.38;;;1.25;;
34836;SDS011;21053;50.848;4.652;2022-09-09T03:45:14;3.78;;;1.25;;
34836;SDS011;21053;50.848;4.652;2022-09-09T03:52:40;3.85;;;1.20;;
34836;SDS011;21053;50.848;4.652;2022-09-09T03:55:09;7.18;;;1.63;;
34836;SDS011;21053;50.848;4.652;2022-09-09T03:57:38;5.38;;;1.30;;
34836;SDS011;21053;50.848;4.652;2022-09-09T04:02:35;6.65;;;1.27;;
34836;SDS011;21053;50.848;4.652;2022-09-09T04:05:03;5.55;;;1.30;;
34836;SDS011;21053;50.848;4.652;2022-09-09T04:07:31;5.00;;;1.40;;
34836;SDS011;21053;50.848;4.652;2022-09-09T04:09:58;5.28;;;1.27;;
34836;SDS011;21053;50.848;4.652;2022-09-09T04:12:26;10.13;;;1.60;;
34836;SDS011;21053;50.848;4.652;2022-09-09T04:14:55;7.53;;;1.75;;
34836;SDS011;21053;50.848;4.652;2022-09-09T04:17:27;11.52;;;1.95;;
34836;SDS011;21053;50.848;4.652;2022-09-09T04:19:53;8.27;;;1.92;;
34836;SDS011;21053;50.848;4.652;2022-09-09T04:22:22;10.05;;;1.77;;
34836;SDS011;21053;50.848;4.652;2022-09-09T04:24:51;7.93;;;1.80;;
34836;SDS011;21053;50.848;4.652;2022-09-09T04:29:45;16.45;;;1.95;;
34836;SDS011;21053;50.848;4.652;2022-09-09T04:32:14;9.55;;;1.98;;
34836;SDS011;21053;50.848;4.652;2022-09-09T04:37:09;11.70;;;1.88;;
34836;SDS011;21053;50.848;4.652;2022-09-09T04:39:35;5.32;;;1.55;;
34836;SDS011;21053;50.848;4.652;2022-09-09T04:42:01;7.00;;;1.75;;
34836;SDS011;21053;50.848;4.652;2022-09-09T04:47:29;6.95;;;1.85;;
34836;SDS011;21053;50.848;4.652;2022-09-09T04:52:28;7.20;;;2.22;;
34836;SDS011;21053;50.848;4.652;2022-09-09T04:57:25;11.10;;;2.05;;
34836;SDS011;21053;50.848;4.652;2022-09-09T04:59:57;12.95;;;2.40;;
34836;SDS011;21053;50.848;4.652;2022-09-09T05:02:26;11.48;;;2.20;;
34836;SDS011;21053;50.848;4.652;2022-09-09T05:04:55;10.50;;;2.28;;
34836;SDS011;21053;50.848;4.652;2022-09-09T05:07:27;13.32;;;2.38;;
34836;SDS011;21053;50.848;4.652;2022-09-09T05:09:57;20.20;;;2.83;;
34836;SDS011;21053;50.848;4.652;2022-09-09T05:14:52;17.17;;;2.22;;
34836;SDS011;21053;50.848;4.652;2022-09-09T05:22:20;15.60;;;2.30;;
34836;SDS011;21053;50.848;4.652;2022-09-09T05:24:48;9.48;;;2.15;;
34836;SDS011;21053;50.848;4.652;2022-09-09T05:27:17;14.38;;;2.20;;
34836;SDS011;21053;50.848;4.652;2022-09-09T05:29:44;12.98;;;2.58;;
34836;SDS011;21053;50.848;4.652;2022-09-09T05:34:45;11.30;;;2.72;;
34836;SDS011;21053;50.848;4.652;2022-09-09T05:37:11;13.85;;;2.10;;
34836;SDS011;21053;50.848;4.652;2022-09-09T05:39:37;15.57;;;2.33;;
34836;SDS011;21053;50.848;4.652;2022-09-09T05:42:03;6.60;;;1.70;;
34836;SDS011;21053;50.848;4.652;2022-09-09T05:44:29;8.40;;;1.85;;
34836;SDS011;21053;50.848;4.652;2022-09-09T05:46:58;13.90;;;2.95;;
34836;SDS011;21053;50.848;4.652;2022-09-09T05:49:27;8.73;;;1.98;;
34836;SDS011;21053;50.848;4.652;2022-09-09T05:51:56;14.07;;;2.22;;
34836;SDS011;21053;50.848;4.652;2022-09-09T05:54:21;12.57;;;2.30;;
34836;SDS011;21053;50.848;4.652;2022-09-09T05:56:48;9.25;;;2.15;;
34836;SDS011;21053;50.848;4.652;2022-09-09T06:01:46;11.30;;;2.13;;
34836;SDS011;21053;50.848;4.652;2022-09-09T06:04:12;9.15;;;1.73;;
34836;SDS011;21053;50.848;4.652;2022-09-09T06:06:39;10.20;;;2.15;;
34836;SDS011;21053;50.848;4.652;2022-09-09T06:09:05;8.07;;;2.03;;
34836;SDS011;21053;50.848;4.652;2022-09-09T06:16:36;13.90;;;2.40;;
34836;SDS011;21053;50.848;4.652;2022-09-09T06:19:05;17.30;;;2.85;;
34836;SDS011;21053;50.848;4.652;2022-09-09T06:21:35;13.25;;;1.90;;
34836;SDS011;21053;50.848;4.652;2022-09-09T06:24:07;12.50;;;2.15;;
34836;SDS011;21053;50.848;4.652;2022-09-09T06:29:04;9.63;;;1.70;;
34836;SDS011;21053;50.848;4.652;2022-09-09T06:31:32;11.98;;;1.88;;
34836;SDS011;21053;50.848;4.652;2022-09-09T06:34:04;10.75;;;2.15;;
34836;SDS011;21053;50.848;4.652;2022-09-09T06:36:34;13.02;;;2.13;;
34836;SDS011;21053;50.848;4.652;2022-09-09T06:41:33;10.20;;;1.98;;
34836;SDS011;21053;50.848;4.652;2022-09-09T06:44:00;9.82;;;2.13;;
34836;SDS011;21053;50.848;4.652;2022-09-09T06:46:29;9.93;;;1.95;;
34836;SDS011;21053;50.848;4.652;2022-09-09T06:56:32;7.30;;;1.73;;
34836;SDS011;21053;50.848;4.652;2022-09-09T06:59:03;11.52;;;1.98;;
34836;SDS011;21053;50.848;4.652;2022-09-09T07:01:38;18.48;;;1.75;;
34836;SDS011;21053;50.848;4.652;2022-09-09T07:04:08;8.50;;;1.80;;
34836;SDS011;21053;50.848;4.652;2022-09-09T07:06:38;12.48;;;2.15;;
34836;SDS011;21053;50.848;4.652;2022-09-09T07:09:09;13.93;;;2.00;;
34836;SDS011;21053;50.848;4.652;2022-09-09T07:11:55;15.60;;;2.08;;
34836;SDS011;21053;50.848;4.652;2022-09-09T07:14:26;8.85;;;2.10;;
34836;SDS011;21053;50.848;4.652;2022-09-09T07:16:54;16.95;;;2.00;;
34836;SDS011;21053;50.848;4.652;2022-09-09T07:19:21;9.93;;;2.05;;
34836;SDS011;21053;50.848;4.652;2022-09-09T07:24:15;12.80;;;2.00;;
34836;SDS011;21053;50.848;4.652;2022-09-09T07:26:41;16.38;;;1.98;;
34836;SDS011;21053;50.848;4.652;2022-09-09T07:29:09;13.45;;;1.65;;
34836;SDS011;21053;50.848;4.652;2022-09-09T07:31:36;14.00;;;1.95;;
34836;SDS011;21053;50.848;4.652;2022-09-09T07:34:08;8.77;;;1.90;;
34836;SDS011;21053;50.848;4.652;2022-09-09T07:36:36;16.27;;;2.50;;
34836;SDS011;21053;50.848;4.652;2022-09-09T07:39:06;11.52;;;2.22;;
34836;SDS011;21053;50.848;4.652;2022-09-09T07:41:40;9.32;;;1.88;;
34836;SDS011;21053;50.848;4.652;2022-09-09T07:46:43;9.05;;;2.00;;
34836;SDS011;21053;50.848;4.652;2022-09-09T07:49:13;9.65;;;2.05;;
34836;SDS011;21053;50.848;4.652;2022-09-09T07:51:41;9.52;;;1.73;;
34836;SDS011;21053;50.848;4.652;2022-09-09T07:54:12;15.40;;;2.83;;
34836;SDS011;21053;50.848;4.652;2022-09-09T07:59:10;16.05;;;2.50;;
34836;SDS011;21053;50.848;4.652;2022-09-09T08:01:41;11.88;;;2.22;;
34836;SDS011;21053;50.848;4.652;2022-09-09T08:04:17;14.88;;;2.28;;
34836;SDS011;21053;50.848;4.652;2022-09-09T08:06:57;9.40;;;1.92;;
34836;SDS011;21053;50.848;4.652;2022-09-09T08:09:24;12.02;;;2.40;;
34836;SDS011;21053;50.848;4.652;2022-09-09T08:11:56;10.55;;;1.92;;
34836;SDS011;21053;50.848;4.652;2022-09-09T08:16:55;9.80;;;2.10;;
34836;SDS011;21053;50.848;4.652;2022-09-09T08:19:22;7.63;;;1.70;;
34836;SDS011;21053;50.848;4.652;2022-09-09T08:21:51;12.90;;;1.90;;
34836;SDS011;21053;50.848;4.652;2022-09-09T08:26:47;18.67;;;2.03;;
34836;SDS011;21053;50.848;4.652;2022-09-09T08:29:19;9.38;;;2.13;;
34836;SDS011;21053;50.848;4.652;2022-09-09T08:31:56;10.57;;;1.77;;
34836;SDS011;21053;50.848;4.652;2022-09-09T08:34:23;11.70;;;1.65;;
34836;SDS011;21053;50.848;4.652;2022-09-09T08:36:53;8.40;;;1.50;;
34836;SDS011;21053;50.848;4.652;2022-09-09T08:55:38;7.13;;;1.73;;
34836;SDS011;21053;50.848;4.652;2022-09-09T09:09:42;8.65;;;1.77;;
34836;SDS011;21053;50.848;4.652;2022-09-09T09:12:19;10.80;;;1.92;;
34836;SDS011;21053;50.848;4.652;2022-09-09T09:14:49;10.25;;;1.90;;
34836;SDS011;21053;50.848;4.652;2022-09-09T09:17:21;9.52;;;1.80;;
34836;SDS011;21053;50.848;4.652;2022-09-09T09:19:50;11.60;;;2.20;;
34836;SDS011;21053;50.848;4.652;2022-09-09T09:22:25;6.93;;;2.03;;
34836;SDS011;21053;50.848;4.652;2022-09-09T09:25:31;8.48;;;2.03;;
34836;SDS011;21053;50.848;4.652;2022-09-09T09:30:35;9.95;;;1.67;;
34836;SDS011;21053;50.848;4.652;2022-09-09T09:33:18;11.93;;;2.22;;
34836;SDS011;21053;50.848;4.652;2022-09-09T09:35:52;12.48;;;1.65;;
34836;SDS011;21053;50.848;4.652;2022-09-09T09:38:22;8.15;;;1.77;;
34836;SDS011;21053;50.848;4.652;2022-09-09T09:45:54;13.57;;;2.20;;
34836;SDS011;21053;50.848;4.652;2022-09-09T09:53:33;15.88;;;2.35;;
34836;SDS011;21053;50.848;4.652;2022-09-09T09:56:01;10.95;;;2.13;;
34836;SDS011;21053;50.848;4.652;2022-09-09T10:04:14;8.80;;;2.17;;
34836;SDS011;21053;50.848;4.652;2022-09-09T10:06:42;21.60;;;2.10;;
34836;SDS011;21053;50.848;4.652;2022-09-09T10:09:21;18.88;;;2.65;;
34836;SDS011;21053;50.848;4.652;2022-09-09T10:24:05;10.95;;;2.22;;
34836;SDS011;21053;50.848;4.652;2022-09-09T10:43:18;6.60;;;2.13;;
34836;SDS011;21053;50.848;4.652;2022-09-09T10:56:50;9.80;;;2.53;;
34836;SDS011;21053;50.848;4.652;2022-09-09T10:59:24;12.27;;;2.45;;
34836;SDS011;21053;50.848;4.652;2022-09-09T11:04:42;10.70;;;2.15;;
34836;SDS011;21053;50.848;4.652;2022-09-09T11:07:22;7.38;;;1.95;;
34836;SDS011;21053;50.848;4.652;2022-09-09T11:09:56;12.50;;;2.33;;
34836;SDS011;21053;50.848;4.652;2022-09-09T11:12:32;10.27;;;2.20;;
34836;SDS011;21053;50.848;4.652;2022-09-09T11:15:04;12.05;;;2.40;;
34836;SDS011;21053;50.848;4.652;2022-09-09T11:17:41;20.70;;;2.25;;
34836;SDS011;21053;50.848;4.652;2022-09-09T11:20:13;14.55;;;2.88;;
34836;SDS011;21053;50.848;4.652;2022-09-09T11:25:44;5.90;;;1.88;;
34836;SDS011;21053;50.848;4.652;2022-09-09T11:28:40;11.35;;;2.08;;
34836;SDS011;21053;50.848;4.652;2022-09-09T11:37:44;11.80;;;2.10;;
34836;SDS011;21053;50.848;4.652;2022-09-09T11:40:31;10.82;;;1.95;;
34836;SDS011;21053;50.848;4.652;2022-09-09T11:43:23;6.50;;;1.70;;
34836;SDS011;21053;50.848;4.652;2022-09-09T11:45:56;11.80;;;1.70;;
34836;SDS011;21053;50.848;4.652;2022-09-09T11:48:37;10.25;;;1.92;;
34836;SDS011;21053;50.848;4.652;2022-09-09T11:56:54;7.25;;;1.80;;
34836;SDS011;21053;50.848;4.652;2022-09-09T11:59:27;8.20;;;1.88;;
34836;SDS011;21053;50.848;4.652;2022-09-09T12:01:59;13.90;;;1.65;;
34836;SDS011;21053;50.848;4.652;2022-09-09T12:04:48;6.97;;;1.38;;
34836;SDS011;21053;50.848;4.652;2022-09-09T12:10:26;7.32;;;1.67;;
34836;SDS011;21053;50.848;4.652;2022-09-09T12:13:21;7.22;;;1.45;;
34836;SDS011;21053;50.848;4.652;2022-09-09T12:15:52;6.85;;;1.50;;
34836;SDS011;21053;50.848;4.652;2022-09-09T12:24:08;8.73;;;1.73;;
34836;SDS011;21053;50.848;4.652;2022-09-09T12:26:53;9.23;;;1.60;;
34836;SDS011;21053;50.848;4.652;2022-09-09T12:29:51;7.93;;;1.38;;
34836;SDS011;21053;50.848;4.652;2022-09-09T12:32:29;9.18;;;1.80;;
34836;SDS011;21053;50.848;4.652;2022-09-09T12:35:41;8.98;;;1.63;;
34836;SDS011;21053;50.848;4.652;2022-09-09T12:37:58;8.75;;;1.63;;
34836;SDS011;21053;50.848;4.652;2022-09-09T12:40:30;8.20;;;1.88;;
34836;SDS011;21053;50.848;4.652;2022-09-09T12:43:01;6.57;;;1.60;;
34836;SDS011;21053;50.848;4.652;2022-09-09T12:45:43;10.52;;;1.80;;
34836;SDS011;21053;50.848;4.652;2022-09-09T12:48:14;9.25;;;1.25;;
34836;SDS011;21053;50.848;4.652;2022-09-09T12:50:48;9.10;;;1.52;;
34836;SDS011;21053;50.848;4.652;2022-09-09T12:58:35;7.03;;;1.90;;
34836;SDS011;21053;50.848;4.652;2022-09-09T13:03:53;7.80;;;1.35;;
34836;SDS011;21053;50.848;4.652;2022-09-09T13:06:26;6.75;;;1.45;;
34836;SDS011;21053;50.848;4.652;2022-09-09T13:09:00;4.13;;;1.45;;
34836;SDS011;21053;50.848;4.652;2022-09-09T13:11:30;13.38;;;1.58;;
34836;SDS011;21053;50.848;4.652;2022-09-09T13:14:05;4.95;;;1.23;;
34836;SDS011;21053;50.848;4.652;2022-09-09T13:16:34;9.70;;;1.30;;
34836;SDS011;21053;50.848;4.652;2022-09-09T13:19:07;7.65;;;1.27;;
34836;SDS011;21053;50.848;4.652;2022-09-09T13:21:38;2.70;;;1.33;;
34836;SDS011;21053;50.848;4.652;2022-09-09T13:29:53;5.82;;;1.30;;
34836;SDS011;21053;50.848;4.652;2022-09-09T13:32:26;5.07;;;1.10;;
34836;SDS011;21053;50.848;4.652;2022-09-09T13:34:59;5.40;;;1.23;;
34836;SDS011;21053;50.848;4.652;2022-09-09T13:37:38;3.17;;;1.17;;
34836;SDS011;21053;50.848;4.652;2022-09-09T13:40:15;4.60;;;1.20;;
34836;SDS011;21053;50.848;4.652;2022-09-09T13:42:46;3.70;;;1.45;;
34836;SDS011;21053;50.848;4.652;2022-09-09T13:45:19;4.72;;;1.20;;
34836;SDS011;21053;50.848;4.652;2022-09-09T13:47:48;5.27;;;1.23;;
34836;SDS011;21053;50.848;4.652;2022-09-09T13:50:29;3.17;;;1.05;;
34836;SDS011;21053;50.848;4.652;2022-09-09T13:52:58;8.43;;;1.48;;
34836;SDS011;21053;50.848;4.652;2022-09-09T13:55:25;5.85;;;1.23;;
34836;SDS011;21053;50.848;4.652;2022-09-09T13:57:53;3.40;;;1.10;;
34836;SDS011;21053;50.848;4.652;2022-09-09T14:00:32;6.93;;;1.20;;
34836;SDS011;21053;50.848;4.652;2022-09-09T14:03:01;2.53;;;1.10;;
34836;SDS011;21053;50.848;4.652;2022-09-09T14:05:30;4.68;;;1.25;;
34836;SDS011;21053;50.848;4.652;2022-09-09T14:10:33;5.85;;;1.05;;
34836;SDS011;21053;50.848;4.652;2022-09-09T14:13:05;3.47;;;1.00;;
34836;SDS011;21053;50.848;4.652;2022-09-09T14:15:39;6.28;;;1.13;;
34836;SDS011;21053;50.848;4.652;2022-09-09T14:18:04;3.83;;;1.40;;
34836;SDS011;21053;50.848;4.652;2022-09-09T14:20:37;3.85;;;1.13;;
34836;SDS011;21053;50.848;4.652;2022-09-09T14:23:02;3.35;;;1.10;;
34836;SDS011;21053;50.848;4.652;2022-09-09T14:28:00;2.65;;;1.02;;
34836;SDS011;21053;50.848;4.652;2022-09-09T14:30:30;5.65;;;1.23;;
34836;SDS011;21053;50.848;4.652;2022-09-09T14:32:55;7.63;;;1.45;;
34836;SDS011;21053;50.848;4.652;2022-09-09T14:37:51;9.32;;;1.30;;
34836;SDS011;21053;50.848;4.652;2022-09-09T14:40:20;4.45;;;1.48;;
34836;SDS011;21053;50.848;4.652;2022-09-09T14:42:49;4.63;;;1.20;;
34836;SDS011;21053;50.848;4.652;2022-09-09T14:45:21;4.07;;;1.15;;
34836;SDS011;21053;50.848;4.652;2022-09-09T14:50:21;5.65;;;1.10;;
34836;SDS011;21053;50.848;4.652;2022-09-09T14:52:49;3.83;;;1.30;;
34836;SDS011;21053;50.848;4.652;2022-09-09T14:55:17;5.00;;;1.38;;
34836;SDS011;21053;50.848;4.652;2022-09-09T14:57:45;6.15;;;1.52;;
34836;SDS011;21053;50.848;4.652;2022-09-09T15:02:41;5.97;;;1.70;;
34836;SDS011;21053;50.848;4.652;2022-09-09T15:05:12;4.70;;;1.58;;
34836;SDS011;21053;50.848;4.652;2022-09-09T15:10:07;4.35;;;1.52;;
34836;SDS011;21053;50.848;4.652;2022-09-09T15:12:35;4.85;;;1.20;;
34836;SDS011;21053;50.848;4.652;2022-09-09T15:15:00;6.47;;;1.35;;
34836;SDS011;21053;50.848;4.652;2022-09-09T15:19:55;7.07;;;1.52;;
34836;SDS011;21053;50.848;4.652;2022-09-09T15:22:23;6.07;;;1.63;;
34836;SDS011;21053;50.848;4.652;2022-09-09T15:24:50;8.05;;;1.48;;
34836;SDS011;21053;50.848;4.652;2022-09-09T15:27:18;4.93;;;1.48;;
34836;SDS011;21053;50.848;4.652;2022-09-09T15:32:15;3.88;;;0.90;;
34836;SDS011;21053;50.848;4.652;2022-09-09T15:34:43;6.28;;;1.25;;
34836;SDS011;21053;50.848;4.652;2022-09-09T15:37:12;5.28;;;1.08;;
34836;SDS011;21053;50.848;4.652;2022-09-09T15:39:38;6.20;;;1.63;;
34836;SDS011;21053;50.848;4.652;2022-09-09T15:42:09;5.60;;;1.17;;
34836;SDS011;21053;50.848;4.652;2022-09-09T15:44:44;4.95;;;1.58;;
34836;SDS011;21053;50.848;4.652;2022-09-09T15:47:10;5.28;;;1.50;;
34836;SDS011;21053;50.848;4.652;2022-09-09T15:49:38;9.30;;;1.55;;
34836;SDS011;21053;50.848;4.652;2022-09-09T15:52:06;4.47;;;1.33;;
34836;SDS011;21053;50.848;4.652;2022-09-09T15:54:34;10.35;;;1.27;;
34836;SDS011;21053;50.848;4.652;2022-09-09T16:05:02;5.68;;;1.40;;
34836;SDS011;21053;50.848;4.652;2022-09-09T16:07:29;6.72;;;1.33;;
34836;SDS011;21053;50.848;4.652;2022-09-09T16:09:55;4.85;;;1.15;;
34836;SDS011;21053;50.848;4.652;2022-09-09T16:12:24;3.65;;;0.95;;
34836;SDS011;21053;50.848;4.652;2022-09-09T16:14:52;5.25;;;1.42;;
34836;SDS011;21053;50.848;4.652;2022-09-09T16:17:20;7.57;;;1.33;;
34836;SDS011;21053;50.848;4.652;2022-09-09T16:19:46;4.60;;;1.38;;
34836;SDS011;21053;50.848;4.652;2022-09-09T16:22:15;5.18;;;1.33;;
34836;SDS011;21053;50.848;4.652;2022-09-09T16:24:43;4.38;;;1.40;;
34836;SDS011;21053;50.848;4.652;2022-09-09T16:27:12;8.45;;;1.58;;
34836;SDS011;21053;50.848;4.652;2022-09-09T16:29:38;5.90;;;1.27;;
34836;SDS011;21053;50.848;4.652;2022-09-09T16:32:07;4.82;;;1.33;;
34836;SDS011;21053;50.848;4.652;2022-09-09T16:34:36;5.53;;;1.45;;
34836;SDS011;21053;50.848;4.652;2022-09-09T16:37:05;6.43;;;1.40;;
34836;SDS011;21053;50.848;4.652;2022-09-09T16:39:31;5.22;;;1.40;;
34836;SDS011;21053;50.848;4.652;2022-09-09T16:41:58;5.70;;;1.60;;
34836;SDS011;21053;50.848;4.652;2022-09-09T16:44:25;4.30;;;1.30;;
34836;SDS011;21053;50.848;4.652;2022-09-09T16:47:05;7.75;;;2.13;;
34836;SDS011;21053;50.848;4.652;2022-09-09T16:49:31;11.60;;;1.50;;
34836;SDS011;21053;50.848;4.652;2022-09-09T16:51:57;3.60;;;1.20;;
34836;SDS011;21053;50.848;4.652;2022-09-09T16:54:26;4.70;;;1.20;;
34836;SDS011;21053;50.848;4.652;2022-09-09T16:59:36;8.35;;;1.25;;
34836;SDS011;21053;50.848;4.652;2022-09-09T17:02:07;2.30;;;0.80;;
34836;SDS011;21053;50.848;4.652;2022-09-09T17:04:34;2.58;;;0.85;;
34836;SDS011;21053;50.848;4.652;2022-09-09T17:07:03;2.00;;;0.75;;
34836;SDS011;21053;50.848;4.652;2022-09-09T17:09:30;4.47;;;0.82;;
34836;SDS011;21053;50.848;4.652;2022-09-09T17:11:56;5.05;;;0.80;;
34836;SDS011;21053;50.848;4.652;2022-09-09T17:14:24;0.73;;;0.70;;
34836;SDS011;21053;50.848;4.652;2022-09-09T17:19:21;1.27;;;0.68;;
34836;SDS011;21053;50.848;4.652;2022-09-09T17:24:19;1.50;;;0.80;;
34836;SDS011;21053;50.848;4.652;2022-09-09T17:26:47;2.15;;;0.90;;
34836;SDS011;21053;50.848;4.652;2022-09-09T17:29:29;2.72;;;0.70;;
34836;SDS011;21053;50.848;4.652;2022-09-09T17:31:54;2.92;;;0.77;;
34836;SDS011;21053;50.848;4.652;2022-09-09T17:34:22;2.42;;;1.00;;
34836;SDS011;21053;50.848;4.652;2022-09-09T17:39:20;4.82;;;1.00;;
34836;SDS011;21053;50.848;4.652;2022-09-09T17:44:18;2.00;;;0.93;;
34836;SDS011;21053;50.848;4.652;2022-09-09T17:49:16;3.20;;;1.08;;
34836;SDS011;21053;50.848;4.652;2022-09-09T17:51:43;4.68;;;1.30;;
34836;SDS011;21053;50.848;4.652;2022-09-09T17:54:14;5.15;;;0.90;;
34836;SDS011;21053;50.848;4.652;2022-09-09T17:56:43;1.55;;;0.98;;
34836;SDS011;21053;50.848;4.652;2022-09-09T18:01:41;4.47;;;1.10;;
34836;SDS011;21053;50.848;4.652;2022-09-09T18:04:14;5.32;;;1.02;;
34836;SDS011;21053;50.848;4.652;2022-09-09T18:06:44;5.55;;;1.30;;
34836;SDS011;21053;50.848;4.652;2022-09-09T18:09:15;7.70;;;1.20;;
34836;SDS011;21053;50.848;4.652;2022-09-09T18:11:46;6.00;;;1.30;;
34836;SDS011;21053;50.848;4.652;2022-09-09T18:14:18;4.20;;;1.30;;
34836;SDS011;21053;50.848;4.652;2022-09-09T18:16:47;8.88;;;1.88;;
34836;SDS011;21053;50.848;4.652;2022-09-09T18:19:19;3.70;;;1.25;;
34836;SDS011;21053;50.848;4.652;2022-09-09T18:21:49;4.60;;;1.58;;
34836;SDS011;21053;50.848;4.652;2022-09-09T18:24:16;2.70;;;1.08;;
34836;SDS011;21053;50.848;4.652;2022-09-09T18:26:43;6.82;;;1.45;;
34836;SDS011;21053;50.848;4.652;2022-09-09T18:31:41;7.53;;;1.42;;
34836;SDS011;21053;50.848;4.652;2022-09-09T18:34:13;8.85;;;1.58;;
34836;SDS011;21053;50.848;4.652;2022-09-09T18:36:43;14.80;;;1.60;;
34836;SDS011;21053;50.848;4.652;2022-09-09T18:39:17;3.72;;;1.10;;
34836;SDS011;21053;50.848;4.652;2022-09-09T18:41:48;5.70;;;1.35;;
34836;SDS011;21053;50.848;4.652;2022-09-09T18:46:48;10.52;;;1.52;;
34836;SDS011;21053;50.848;4.652;2022-09-09T18:54:17;8.00;;;1.33;;
34836;SDS011;21053;50.848;4.652;2022-09-09T18:59:16;3.75;;;1.15;;
34836;SDS011;21053;50.848;4.652;2022-09-09T19:01:45;7.88;;;1.27;;
34836;SDS011;21053;50.848;4.652;2022-09-09T19:04:11;9.70;;;1.40;;
34836;SDS011;21053;50.848;4.652;2022-09-09T19:06:41;8.60;;;1.20;;
34836;SDS011;21053;50.848;4.652;2022-09-09T19:09:14;6.78;;;1.33;;
34836;SDS011;21053;50.848;4.652;2022-09-09T19:11:42;5.80;;;1.30;;
34836;SDS011;21053;50.848;4.652;2022-09-09T19:14:10;9.65;;;1.33;;
34836;SDS011;21053;50.848;4.652;2022-09-09T19:16:40;11.02;;;1.42;;
34836;SDS011;21053;50.848;4.652;2022-09-09T19:21:39;3.75;;;1.00;;
34836;SDS011;21053;50.848;4.652;2022-09-09T19:24:11;6.22;;;1.40;;
34836;SDS011;21053;50.848;4.652;2022-09-09T19:26:49;11.13;;;1.27;;
34836;SDS011;21053;50.848;4.652;2022-09-09T19:29:21;3.38;;;1.33;;
34836;SDS011;21053;50.848;4.652;2022-09-09T19:31:52;3.90;;;1.10;;
34836;SDS011;21053;50.848;4.652;2022-09-09T19:34:19;9.23;;;1.08;;
34836;SDS011;21053;50.848;4.652;2022-09-09T19:36:46;2.88;;;1.25;;
34836;SDS011;21053;50.848;4.652;2022-09-09T19:39:18;7.90;;;1.48;;
34836;SDS011;21053;50.848;4.652;2022-09-09T19:41:47;4.90;;;1.63;;
34836;SDS011;21053;50.848;4.652;2022-09-09T19:44:16;5.13;;;1.75;;
34836;SDS011;21053;50.848;4.652;2022-09-09T19:46:43;5.95;;;1.50;;
34836;SDS011;21053;50.848;4.652;2022-09-09T19:49:15;5.78;;;1.40;;
34836;SDS011;21053;50.848;4.652;2022-09-09T19:54:11;8.38;;;1.70;;
34836;SDS011;21053;50.848;4.652;2022-09-09T19:59:22;6.13;;;1.75;;
34836;SDS011;21053;50.848;4.652;2022-09-09T20:01:51;7.00;;;1.50;;
34836;SDS011;21053;50.848;4.652;2022-09-09T20:04:17;11.20;;;1.60;;
34836;SDS011;21053;50.848;4.652;2022-09-09T20:06:46;4.80;;;1.38;;
34836;SDS011;21053;50.848;4.652;2022-09-09T20:09:15;5.90;;;1.40;;
34836;SDS011;21053;50.848;4.652;2022-09-09T20:11:42;5.95;;;1.30;;
34836;SDS011;21053;50.848;4.652;2022-09-09T20:14:09;7.60;;;1.30;;
34836;SDS011;21053;50.848;4.652;2022-09-09T20:16:39;5.38;;;1.30;;
34836;SDS011;21053;50.848;4.652;2022-09-09T20:19:14;3.42;;;1.20;;
34836;SDS011;21053;50.848;4.652;2022-09-09T20:24:39;4.25;;;1.30;;
34836;SDS011;21053;50.848;4.652;2022-09-09T20:27:16;6.65;;;1.45;;
34836;SDS011;21053;50.848;4.652;2022-09-09T20:29:42;3.80;;;1.10;;
34836;SDS011;21053;50.848;4.652;2022-09-09T20:32:57;7.50;;;1.45;;
34836;SDS011;21053;50.848;4.652;2022-09-09T20:35:27;11.57;;;1.60;;
34836;SDS011;21053;50.848;4.652;2022-09-09T20:38:05;9.32;;;1.90;;